»·PEaware :: QXE2145 KPDX-KBOI

QXE2145 :: KPDX-KBOI

FLIGHT INFORMATION

Flight Status: Arrived
Operator:
Horizon Air
More flights by this operator :: More flights under this callsign
Pilot: Adlai G. (28854)
Aircraft: DEHAVILLAND DASH 8 400
(DH8D)
More flights by this aircraft type
Origin: KPDX Portland Intl
United States
Destination: KBOI Boise Air Terminal/Gowen
United States
More flights between these airports :: More routes between these airports
Route: +PTLD1 IMB DEVLE KYAAN3
File this flight plan on PilotEdge
Remarks:
Altitude:
(Current/Filed)
25,000ft
Speed:
(Current/Filed)
350kts
Departed: 09-Apr-20 01:47 PM
Arrived: 09-Apr-20 02:53 PM
Distance/Time
Traveled:
298nm/1:06
Distance/Time
To Go:
Arrived

Flight Plot

Page will automatically refresh every two minutes.


Map Options




Map Legend


Flown Route
Filed Route
Departure Airport
Arrival Airport
Navaid (VOR, NDB)
Fix

Horizontal Profiles

Position Reports

Time Latitude Longitude Heading Altitude Ground
Speed
09-Apr-20 13:10 45.590414 -122.598170 209 37ft 0kts
09-Apr-20 13:11 45.590414 -122.598170 209 37ft 0kts
09-Apr-20 13:12 45.590414 -122.598170 209 37ft 0kts
09-Apr-20 13:13 45.590414 -122.598170 209 37ft 0kts
09-Apr-20 13:14 45.590414 -122.598170 209 37ft 0kts
09-Apr-20 13:15 45.590414 -122.598170 209 37ft 0kts
09-Apr-20 13:16 45.590414 -122.598170 209 37ft 0kts
09-Apr-20 13:17 45.590414 -122.598170 209 37ft 0kts
09-Apr-20 13:18 45.590414 -122.598170 209 37ft 0kts
09-Apr-20 13:19 45.590414 -122.598170 209 37ft 0kts
09-Apr-20 13:20 45.590414 -122.598170 209 37ft 0kts
09-Apr-20 13:21 45.590414 -122.598170 209 37ft 0kts
09-Apr-20 13:22 45.590414 -122.598170 209 37ft 0kts
09-Apr-20 13:23 45.590414 -122.598170 209 37ft 0kts
09-Apr-20 13:24 45.590414 -122.598170 209 37ft 0kts
09-Apr-20 13:25 45.590414 -122.598170 209 37ft 0kts
09-Apr-20 13:26 45.590414 -122.598170 209 37ft 0kts
09-Apr-20 13:27 45.590414 -122.598170 209 37ft 0kts
09-Apr-20 13:28 45.590414 -122.598170 209 37ft 0kts
09-Apr-20 13:29 45.590414 -122.598170 209 37ft 0kts
09-Apr-20 13:30 45.590414 -122.598170 209 37ft 0kts
09-Apr-20 13:31 45.590414 -122.598170 209 37ft 0kts
09-Apr-20 13:32 45.590414 -122.598170 209 37ft 0kts
09-Apr-20 13:33 45.590414 -122.598170 209 37ft 0kts
09-Apr-20 13:34 45.590661 -122.597937 221 37ft 2kts
09-Apr-20 13:35 45.590773 -122.597269 299 37ft 0kts
09-Apr-20 13:36 45.590773 -122.597269 299 37ft 0kts
09-Apr-20 13:37 45.590773 -122.597269 299 37ft 0kts
09-Apr-20 13:38 45.590838 -122.597434 299 37ft 3kts
09-Apr-20 13:39 45.591608 -122.599112 341 37ft 3kts
09-Apr-20 13:40 45.593785 -122.596008 84 37ft 12kts
09-Apr-20 13:41 45.591705 -122.590444 118 37ft 16kts
09-Apr-20 13:42 45.589179 -122.583957 120 37ft 25kts
09-Apr-20 13:43 45.585865 -122.575460 119 37ft 21kts
09-Apr-20 13:44 45.582692 -122.567321 119 37ft 12kts
09-Apr-20 13:45 45.583308 -122.566311 335 37ft 8kts
09-Apr-20 13:46 45.597258 -122.601681 301 1187ft 167kts
09-Apr-20 13:47 45.624915 -122.666841 296 3919ft 213kts
09-Apr-20 13:48 45.596335 -122.736348 200 6736ft 244kts
09-Apr-20 13:49 45.531594 -122.727904 129 8966ft 258kts
09-Apr-20 13:50 45.500183 -122.633208 110 10668ft 274kts
09-Apr-20 13:51 45.469447 -122.532245 112 12113ft 284kts
09-Apr-20 13:52 45.439081 -122.425747 110 13227ft 296kts
09-Apr-20 13:53 45.408602 -122.315447 110 14269ft 302kts
09-Apr-20 13:54 45.377654 -122.203736 110 15267ft 305kts
09-Apr-20 13:55 45.346217 -122.091260 110 16270ft 306kts
09-Apr-20 13:56 45.314666 -121.979443 110 17268ft 305kts
09-Apr-20 13:57 45.283068 -121.867576 110 18270ft 304kts
09-Apr-20 13:58 45.251614 -121.757049 109 19268ft 302kts
09-Apr-20 13:59 45.220307 -121.647000 109 20267ft 300kts
09-Apr-20 14:00 45.189038 -121.537568 109 21266ft 298kts
09-Apr-20 14:01 45.157994 -121.429061 109 22264ft 296kts
09-Apr-20 14:02 45.127145 -121.321604 109 23261ft 293kts
09-Apr-20 14:03 45.096516 -121.215420 109 24257ft 289kts
09-Apr-20 14:04 45.065913 -121.110508 109 25091ft 292kts
09-Apr-20 14:05 45.033909 -121.000093 110 25185ft 315kts
09-Apr-20 14:06 44.999309 -120.881191 110 25188ft 338kts
09-Apr-20 14:07 44.962567 -120.756785 110 25188ft 348kts
09-Apr-20 14:08 44.925107 -120.629929 110 25189ft 353kts
09-Apr-20 14:09 44.887222 -120.501535 110 25189ft 356kts
09-Apr-20 14:10 44.848663 -120.373084 110 25189ft 357kts
09-Apr-20 14:11 44.810097 -120.244056 110 25188ft 357kts
09-Apr-20 14:12 44.771361 -120.115886 110 25179ft 355kts
09-Apr-20 14:13 44.732828 -119.988567 110 25172ft 354kts
09-Apr-20 14:14 44.694143 -119.861318 110 25150ft 353kts
09-Apr-20 14:15 44.655448 -119.734637 111 25148ft 353kts
09-Apr-20 14:16 44.630147 -119.603604 99 25136ft 346kts
09-Apr-20 14:17 44.608642 -119.472601 100 25130ft 345kts
09-Apr-20 14:18 44.586389 -119.341794 100 25129ft 344kts
09-Apr-20 14:19 44.564280 -119.211207 100 25123ft 343kts
09-Apr-20 14:20 44.542142 -119.081313 100 25124ft 343kts
09-Apr-20 14:21 44.519873 -118.951469 101 25121ft 342kts
09-Apr-20 14:22 44.497416 -118.822179 101 25122ft 343kts
09-Apr-20 14:23 44.474859 -118.692490 101 25118ft 342kts
09-Apr-20 14:24 44.452277 -118.563697 101 25115ft 340kts
09-Apr-20 14:25 44.429589 -118.435728 101 25112ft 338kts
09-Apr-20 14:26 44.406901 -118.307937 101 25111ft 338kts
09-Apr-20 14:27 44.384038 -118.181090 101 25110ft 338kts
09-Apr-20 14:28 44.361173 -118.053626 101 25101ft 338kts
09-Apr-20 14:29 44.338036 -117.927107 101 24696ft 336kts
09-Apr-20 14:30 44.315015 -117.800451 101 23836ft 339kts
09-Apr-20 14:31 44.291207 -117.671768 102 22028ft 344kts
09-Apr-20 14:32 44.267287 -117.543418 102 20216ft 341kts
09-Apr-20 14:33 44.243425 -117.414838 102 18416ft 343kts
09-Apr-20 14:34 44.218746 -117.284557 104 16559ft 349kts
09-Apr-20 14:35 44.161247 -117.181347 135 16046ft 340kts
09-Apr-20 14:36 44.091896 -117.092033 134 15345ft 340kts
09-Apr-20 14:37 44.023321 -117.002022 134 13345ft 337kts
09-Apr-20 14:38 43.959870 -116.914012 125 10949ft 313kts
09-Apr-20 14:40 43.913952 -116.817799 123 8902ft 283kts
09-Apr-20 14:41 43.870489 -116.728351 123 8029ft 272kts
09-Apr-20 14:42 43.827581 -116.642039 129 8001ft 272kts
09-Apr-20 14:43 43.801912 -116.611390 120 8045ft 0kts
09-Apr-20 14:44 43.808462 -116.640328 258 6073ft 478kts
09-Apr-20 14:45 43.849745 -116.664973 141 8816ft 230kts
09-Apr-20 14:46 43.794538 -116.607530 142 7839ft 257kts
09-Apr-20 14:47 43.739156 -116.548949 142 7899ft 242kts
09-Apr-20 14:48 43.686182 -116.492664 142 7336ft 237kts
09-Apr-20 14:49 43.639141 -116.437323 124 5583ft 206kts
09-Apr-20 14:50 43.615097 -116.369716 113 4863ft 195kts
09-Apr-20 14:51 43.594447 -116.308032 112 4048ft 146kts
09-Apr-20 14:52 43.579007 -116.262385 116 3258ft 121kts
09-Apr-20 14:53 43.565964 -116.224466 115 2878ft 31kts
09-Apr-20 14:54 43.566207 -116.221403 115 2878ft 8kts
09-Apr-20 14:55 43.565439 -116.216398 27 2878ft 8kts
09-Apr-20 14:56 43.568214 -116.219650 286 2878ft 13kts
09-Apr-20 14:57 43.568036 -116.220219 218 2878ft 0kts
09-Apr-20 14:57 43.568036 -116.220219 218 2878ft 0kts
09-Apr-20 14:59 43.568036 -116.220219 218 2878ft 0kts
09-Apr-20 15:00 43.568036 -116.220219 218 2878ft 0kts
09-Apr-20 15:00 43.568036 -116.220219 218 2878ft 0kts
09-Apr-20 15:01 43.568036 -116.220219 218 2878ft 0kts

Navigation Log

Ident Type
Flight plan parsing failed, navigation log unavailable